createdAt,value
2018-04-11T00:02:04.201Z,15.30
2018-04-11T00:04:31.655Z,15.30
2018-04-11T00:06:59.109Z,15.30
2018-04-11T00:09:26.583Z,14.80
2018-04-11T00:11:54.042Z,14.90
2018-04-11T00:14:21.490Z,15.10
2018-04-11T00:16:48.920Z,15.10
2018-04-11T00:19:17.152Z,14.60
2018-04-11T00:21:44.621Z,14.60
2018-04-11T00:24:12.083Z,14.80
2018-04-11T00:26:39.537Z,15.00
2018-04-11T00:29:07.003Z,15.10
2018-04-11T00:31:34.461Z,15.10
2018-04-11T00:34:01.926Z,15.00
2018-04-11T00:36:29.377Z,14.50
2018-04-11T00:38:56.814Z,14.10
2018-04-11T00:41:24.252Z,14.20
2018-04-11T00:43:51.754Z,14.40
2018-04-11T00:46:19.217Z,14.50
2018-04-11T00:48:46.779Z,14.50
2018-04-11T00:51:14.212Z,14.30
2018-04-11T00:53:42.452Z,14.20
2018-04-11T00:56:09.914Z,14.20
2018-04-11T00:58:37.364Z,14.30
2018-04-11T01:01:04.802Z,14.40
2018-04-11T01:03:32.285Z,13.90
2018-04-11T01:05:59.747Z,14.00
2018-04-11T01:08:27.180Z,14.10
2018-04-11T01:10:54.624Z,14.00
2018-04-11T01:13:22.870Z,14.00
2018-04-11T01:15:50.301Z,14.00
2018-04-11T01:18:17.748Z,14.20
2018-04-11T01:20:45.226Z,14.00
2018-04-11T01:23:12.682Z,14.10
2018-04-11T01:25:40.125Z,14.00
2018-04-11T01:28:08.356Z,13.60
2018-04-11T01:30:35.844Z,13.50
2018-04-11T01:33:03.288Z,13.50
2018-04-11T01:35:30.736Z,13.50
2018-04-11T01:37:58.200Z,13.70
2018-04-11T01:40:25.667Z,13.50
2018-04-11T01:42:53.131Z,13.40
2018-04-11T01:45:20.592Z,13.40
2018-04-11T01:47:48.073Z,13.70
2018-04-11T01:50:15.533Z,13.80
2018-04-11T01:52:42.980Z,13.90
2018-04-11T01:55:10.434Z,13.80
2018-04-11T01:57:37.901Z,13.90
2018-04-11T02:00:05.350Z,13.60
2018-04-11T02:02:32.809Z,13.70
2018-04-11T02:05:00.280Z,13.50
2018-04-11T02:07:27.717Z,13.50
2018-04-11T02:09:55.198Z,13.60
2018-04-11T02:12:22.761Z,13.40
2018-04-11T02:14:50.957Z,13.50
2018-04-11T02:17:18.405Z,13.50
2018-04-11T02:19:45.839Z,13.40
2018-04-11T02:22:14.065Z,13.30
2018-04-11T02:24:41.501Z,13.20
2018-04-11T02:27:08.936Z,13.00
2018-04-11T02:29:37.150Z,13.10
2018-04-11T02:32:04.630Z,13.10
2018-04-11T02:34:32.090Z,13.30
2018-04-11T02:37:00.755Z,13.50
2018-04-11T02:39:28.965Z,13.20
2018-04-11T02:41:56.419Z,13.20
2018-04-11T02:44:23.853Z,12.80
2018-04-11T02:46:52.066Z,13.10
2018-04-11T02:49:19.525Z,13.00
2018-04-11T02:51:46.991Z,13.30
2018-04-11T02:54:14.457Z,13.10
2018-04-11T02:56:41.937Z,12.70
2018-04-11T02:59:09.379Z,12.60
2018-04-11T03:01:36.833Z,12.60
2018-04-11T03:04:04.289Z,12.50
2018-04-11T03:06:31.745Z,12.70
2018-04-11T03:08:59.193Z,12.80
2018-04-11T03:11:27.419Z,12.70
2018-04-11T03:13:54.878Z,12.70
2018-04-11T03:16:23.098Z,12.40
2018-04-11T03:18:50.555Z,12.30
2018-04-11T03:21:18.006Z,12.20
2018-04-11T03:23:45.457Z,12.30
2018-04-11T03:26:12.909Z,12.40
2018-04-11T03:28:40.345Z,12.20
2018-04-11T03:31:07.811Z,12.00
2018-04-11T03:33:35.267Z,11.90
2018-04-11T03:36:02.721Z,11.90
2018-04-11T03:38:30.165Z,12.10
2018-04-11T03:40:58.389Z,12.20
2018-04-11T03:43:25.818Z,12.20
2018-04-11T03:45:54.034Z,12.30
2018-04-11T03:48:21.481Z,12.30
2018-04-11T03:50:48.923Z,12.10
2018-04-11T03:53:17.142Z,11.90
2018-04-11T03:55:44.614Z,11.90
2018-04-11T03:58:12.047Z,12.20
2018-04-11T04:00:39.516Z,12.20
2018-04-11T04:03:06.973Z,12.10
2018-04-11T04:05:34.418Z,12.10
2018-04-11T04:08:02.646Z,12.10
2018-04-11T04:10:30.101Z,12.10
2018-04-11T04:12:57.573Z,12.00
2018-04-11T04:15:36.877Z,11.90
2018-04-11T04:18:16.187Z,11.70
2018-04-11T04:20:44.401Z,12.00
2018-04-11T04:23:12.061Z,12.00
2018-04-11T04:25:39.519Z,12.10
2018-04-11T04:28:07.004Z,12.30
2018-04-11T04:30:34.445Z,12.40
2018-04-11T04:33:01.939Z,12.60
2018-04-11T04:35:29.393Z,12.40
2018-04-11T04:37:56.840Z,12.30
2018-04-11T04:40:24.297Z,12.20
2018-04-11T04:42:51.760Z,12.10
2018-04-11T04:45:19.214Z,12.00
2018-04-11T04:47:46.656Z,12.00
2018-04-11T04:50:14.905Z,11.90
2018-04-11T04:52:42.359Z,11.90
2018-04-11T04:55:10.577Z,12.20
2018-04-11T04:57:38.792Z,12.30
2018-04-11T05:00:06.255Z,12.20
2018-04-11T05:02:33.684Z,12.20
2018-04-11T05:05:01.939Z,12.20
2018-04-11T05:07:29.380Z,12.20
2018-04-11T05:09:56.845Z,12.10
2018-04-11T05:12:25.066Z,12.10
2018-04-11T05:14:53.293Z,12.20
2018-04-11T05:17:20.843Z,12.20
2018-04-11T05:19:48.327Z,12.20
2018-04-11T05:22:15.768Z,12.30
2018-04-11T05:24:43.217Z,12.60
2018-04-11T05:27:10.706Z,12.30
2018-04-11T05:29:38.879Z,12.30
2018-04-11T05:32:06.330Z,12.30
2018-04-11T05:34:35.462Z,12.40
2018-04-11T05:37:02.902Z,12.30
2018-04-11T05:39:30.344Z,12.40
2018-04-11T05:41:57.788Z,12.20
2018-04-11T05:44:28.539Z,12.20
2018-04-11T05:46:55.993Z,12.20
2018-04-11T05:49:24.200Z,12.10
2018-04-11T05:51:51.668Z,12.10
2018-04-11T05:54:19.096Z,12.20
2018-04-11T05:56:47.321Z,12.10
2018-04-11T05:59:14.798Z,12.20
2018-04-11T06:01:42.251Z,12.20
2018-04-11T06:04:12.466Z,12.10
2018-04-11T06:06:40.157Z,12.10
2018-04-11T06:09:07.612Z,12.10
2018-04-11T06:11:35.052Z,12.20
2018-04-11T06:14:02.509Z,12.20
2018-04-11T06:16:29.957Z,12.20
2018-04-11T06:18:58.225Z,11.90
2018-04-11T06:21:26.432Z,12.00
2018-04-11T06:23:53.872Z,12.00
2018-04-11T06:26:22.104Z,12.00
2018-04-11T06:28:49.536Z,12.00
2018-04-11T06:31:17.002Z,12.10
2018-04-11T06:33:44.493Z,12.10
2018-04-11T06:36:11.914Z,12.00
2018-04-11T06:38:39.355Z,11.90
2018-04-11T06:41:07.595Z,12.00
2018-04-11T06:43:35.041Z,12.00
2018-04-11T06:46:02.497Z,11.90
2018-04-11T06:48:29.955Z,11.90
2018-04-11T06:50:57.380Z,11.90
2018-04-11T06:53:25.630Z,12.00
2018-04-11T06:55:53.116Z,12.00
2018-04-11T06:58:20.591Z,12.00
2018-04-11T07:00:48.030Z,11.90
2018-04-11T07:03:15.472Z,11.80
2018-04-11T07:05:42.921Z,11.90
2018-04-11T07:08:10.390Z,11.90
2018-04-11T07:10:37.832Z,11.90
2018-04-11T07:13:05.281Z,11.90
2018-04-11T07:15:32.755Z,11.90
2018-04-11T07:18:00.205Z,12.00
2018-04-11T07:20:27.670Z,12.10
2018-04-11T07:22:55.123Z,12.10
2018-04-11T07:25:23.328Z,12.00
2018-04-11T07:27:50.777Z,12.00
2018-04-11T07:30:18.220Z,12.00
2018-04-11T07:32:46.441Z,12.00
2018-04-11T07:35:13.886Z,12.00
2018-04-11T07:37:41.359Z,12.10
2018-04-11T07:40:08.815Z,12.00
2018-04-11T07:42:36.995Z,12.00
2018-04-11T07:45:04.473Z,12.00
2018-04-11T07:47:31.918Z,12.10
2018-04-11T07:49:59.798Z,12.20
2018-04-11T07:52:27.247Z,12.10
2018-04-11T07:54:54.706Z,12.00
2018-04-11T07:57:22.926Z,12.10
2018-04-11T07:59:50.382Z,12.10
2018-04-11T08:02:17.824Z,12.10
2018-04-11T08:04:45.296Z,12.10
2018-04-11T08:07:12.738Z,12.10
2018-04-11T08:09:40.184Z,12.20
2018-04-11T08:12:08.460Z,12.30
2018-04-11T08:14:36.679Z,12.20
2018-04-11T08:17:04.137Z,12.20
2018-04-11T08:19:31.592Z,12.20
2018-04-11T08:21:59.036Z,12.30
2018-04-11T08:24:27.244Z,12.20
2018-04-11T08:26:54.705Z,12.20
2018-04-11T08:29:22.186Z,12.30
2018-04-11T08:31:49.662Z,12.30
2018-04-11T08:34:17.132Z,12.30
2018-04-11T08:36:44.576Z,12.30
2018-04-11T08:39:12.037Z,12.20
2018-04-11T08:41:39.503Z,12.20
2018-04-11T08:44:06.944Z,12.30
2018-04-11T08:46:34.407Z,12.30
2018-04-11T08:49:01.860Z,12.30
2018-04-11T08:51:29.300Z,12.30
2018-04-11T08:53:58.345Z,12.20
2018-04-11T08:56:25.796Z,12.20
2018-04-11T08:58:53.236Z,12.30
2018-04-11T09:01:21.455Z,12.30
2018-04-11T09:03:48.904Z,12.30
2018-04-11T09:06:16.349Z,12.30
2018-04-11T09:08:43.865Z,12.20
2018-04-11T09:11:11.301Z,12.10
2018-04-11T09:13:38.750Z,12.20
2018-04-11T09:16:06.237Z,12.30
2018-04-11T09:18:33.688Z,12.30
2018-04-11T09:21:01.157Z,12.20
2018-04-11T09:23:28.594Z,12.40
2018-04-11T09:25:56.065Z,12.30
2018-04-11T09:28:23.509Z,12.10
2018-04-11T09:30:50.967Z,12.30
2018-04-11T09:33:19.193Z,12.30
2018-04-11T09:35:46.634Z,12.30
2018-04-11T09:38:14.083Z,12.30
2018-04-11T09:40:41.521Z,12.30
2018-04-11T09:43:09.726Z,12.40
2018-04-11T09:45:37.164Z,12.40
2018-04-11T09:48:05.380Z,12.50
2018-04-11T09:50:32.850Z,12.50
2018-04-11T09:53:00.295Z,12.50
2018-04-11T09:55:27.768Z,12.60
2018-04-11T09:57:55.217Z,12.70
2018-04-11T10:00:22.697Z,12.90
2018-04-11T10:02:56.640Z,13.20
2018-04-11T10:05:24.100Z,13.10
2018-04-11T10:07:51.549Z,13.20
2018-04-11T10:10:18.988Z,13.30
2018-04-11T10:12:46.440Z,13.30
2018-04-11T10:15:13.890Z,13.20
2018-04-11T10:17:42.099Z,13.40
2018-04-11T10:20:09.570Z,13.40
2018-04-11T10:22:37.045Z,13.50
2018-04-11T10:25:04.489Z,13.80
2018-04-11T10:27:31.938Z,13.80
2018-04-11T10:29:59.384Z,14.00
2018-04-11T10:32:27.606Z,13.80
2018-04-11T10:34:55.038Z,13.80
2018-04-11T10:37:22.483Z,13.90
2018-04-11T10:39:50.705Z,14.20
2018-04-11T10:42:18.153Z,14.20
2018-04-11T10:44:45.592Z,14.00
2018-04-11T10:47:13.821Z,14.10
2018-04-11T10:49:42.050Z,14.00
2018-04-11T10:52:10.260Z,13.90
2018-04-11T10:54:37.719Z,13.90
2018-04-11T10:57:05.174Z,14.10
2018-04-11T10:59:32.617Z,14.10
2018-04-11T11:02:00.838Z,14.30
2018-04-11T11:04:28.279Z,14.30
2018-04-11T11:06:55.734Z,14.40
2018-04-11T11:09:23.180Z,14.50
2018-04-11T11:11:51.413Z,14.80
2018-04-11T11:14:18.860Z,14.70
2018-04-11T11:16:47.303Z,14.70
2018-04-11T11:19:15.516Z,14.90
2018-04-11T11:21:42.957Z,14.90
2018-04-11T11:24:11.168Z,15.40
2018-04-11T11:26:38.617Z,15.30
2018-04-11T11:29:06.062Z,14.90
2018-04-11T11:31:34.272Z,14.60
2018-04-11T11:34:01.746Z,14.60
2018-04-11T11:36:29.189Z,14.80
2018-04-11T11:38:56.641Z,15.00
2018-04-11T11:41:24.108Z,15.30
2018-04-11T11:43:51.545Z,15.30
2018-04-11T11:46:19.769Z,15.50
2018-04-11T11:48:47.238Z,15.40
2018-04-11T11:51:14.680Z,15.40
2018-04-11T11:53:42.147Z,15.30
2018-04-11T11:56:09.597Z,15.30
2018-04-11T11:58:37.050Z,15.20
2018-04-11T12:01:05.275Z,15.20
2018-04-11T12:03:32.713Z,15.10
2018-04-11T12:06:00.174Z,15.20
2018-04-11T12:08:27.623Z,15.50
2018-04-11T12:10:55.118Z,15.70
2018-04-11T12:13:22.626Z,15.90
2018-04-11T12:15:50.094Z,16.00
2018-04-11T12:18:17.538Z,16.10
2018-04-11T12:20:45.000Z,16.10
2018-04-11T12:23:12.870Z,16.10
2018-04-11T12:28:15.752Z,16.30
2018-04-11T12:30:43.217Z,16.20
2018-04-11T12:33:10.660Z,16.10
2018-04-11T12:35:38.108Z,16.40
2018-04-11T12:38:05.580Z,16.30
2018-04-11T12:40:33.020Z,16.20
2018-04-11T12:43:01.237Z,16.10
2018-04-11T12:45:28.688Z,16.10
2018-04-11T12:47:56.158Z,16.10
2018-04-11T12:50:23.623Z,16.00
2018-04-11T12:52:51.076Z,16.20
2018-04-11T12:55:18.537Z,16.20
2018-04-11T12:57:45.994Z,16.30
2018-04-11T13:00:13.444Z,16.40
2018-04-11T13:02:41.667Z,16.70
2018-04-11T13:05:09.124Z,16.70
2018-04-11T13:07:36.585Z,16.80
2018-04-11T13:10:04.029Z,16.80
2018-04-11T13:12:31.501Z,16.90
2018-04-11T13:14:58.968Z,16.90
2018-04-11T13:17:26.428Z,16.90
2018-04-11T13:19:53.909Z,17.00
2018-04-11T13:22:21.356Z,17.00
2018-04-11T13:24:48.811Z,17.00
2018-04-11T13:27:16.295Z,17.20
2018-04-11T13:29:43.756Z,17.10
2018-04-11T13:32:11.223Z,17.20
2018-04-11T13:34:38.665Z,17.20
2018-04-11T13:37:06.138Z,17.00
2018-04-11T13:39:33.593Z,17.10
2018-04-11T13:42:01.062Z,17.40
2018-04-11T13:44:28.516Z,17.40
2018-04-11T13:46:55.974Z,17.40
2018-04-11T13:49:23.434Z,17.40
2018-04-11T13:51:50.905Z,17.40
2018-04-11T13:54:18.366Z,17.50
2018-04-11T13:56:45.829Z,17.50
2018-04-11T13:59:13.286Z,17.60
2018-04-11T14:01:40.755Z,17.70
2018-04-11T14:04:08.245Z,17.70
2018-04-11T14:06:35.721Z,17.70
2018-04-11T14:09:03.172Z,17.60
2018-04-11T14:11:30.627Z,17.50
2018-04-11T14:13:58.088Z,17.40
2018-04-11T14:16:25.553Z,17.10
2018-04-11T14:18:52.991Z,17.70
2018-04-11T14:21:20.454Z,17.60
2018-04-11T14:23:47.916Z,17.70
2018-04-11T14:26:15.376Z,17.90
2018-04-11T14:28:42.842Z,18.00
2018-04-11T14:31:10.332Z,18.20
2018-04-11T14:33:37.768Z,17.70
2018-04-11T14:36:05.265Z,17.70
2018-04-11T14:38:32.723Z,17.70
2018-04-11T14:41:00.190Z,17.80
2018-04-11T14:43:27.632Z,17.90
2018-04-11T14:45:55.082Z,18.20
2018-04-11T14:48:22.549Z,18.00
2018-04-11T14:50:50.003Z,18.30
2018-04-11T14:53:17.458Z,18.20
2018-04-11T14:55:44.925Z,17.90
2018-04-11T14:58:13.155Z,18.40
2018-04-11T15:00:40.597Z,18.40
2018-04-11T15:03:08.040Z,18.40
2018-04-11T15:05:35.517Z,18.10
2018-04-11T15:08:02.973Z,18.20
2018-04-11T15:10:30.429Z,18.00
2018-04-11T15:12:57.887Z,18.20
2018-04-11T15:15:25.350Z,18.00
2018-04-11T15:17:52.812Z,18.00
2018-04-11T15:20:20.257Z,18.00
2018-04-11T15:22:47.716Z,18.30
2018-04-11T15:25:15.940Z,18.20
2018-04-11T15:27:43.460Z,18.20
2018-04-11T15:30:10.954Z,18.10
2018-04-11T15:32:38.426Z,18.20
2018-04-11T15:35:05.925Z,18.10
2018-04-11T15:37:34.206Z,18.10
2018-04-11T15:40:01.649Z,18.10
2018-04-11T15:42:29.110Z,18.00
2018-04-11T15:44:57.349Z,17.70
2018-04-11T15:47:24.797Z,17.70
2018-04-11T15:49:53.029Z,17.90
2018-04-11T15:52:20.482Z,17.90
2018-04-11T15:54:47.958Z,17.90
2018-04-11T15:57:15.398Z,17.90
2018-04-11T15:59:42.873Z,18.00
2018-04-11T16:02:11.393Z,18.30
2018-04-11T16:04:38.865Z,18.30
2018-04-11T16:07:07.095Z,18.20
2018-04-11T16:09:35.336Z,18.20
2018-04-11T16:12:03.553Z,18.30
2018-04-11T16:14:30.999Z,18.30
2018-04-11T16:16:58.445Z,18.10
2018-04-11T16:19:26.669Z,17.80
2018-04-11T16:21:54.141Z,17.80
2018-04-11T16:24:21.620Z,17.90
2018-04-11T16:26:49.072Z,17.90
2018-04-11T16:29:16.541Z,17.90
2018-04-11T16:31:44.010Z,17.60
2018-04-11T16:34:11.470Z,17.70
2018-04-11T16:36:38.930Z,17.50
2018-04-11T16:39:06.384Z,17.60
2018-04-11T16:41:33.852Z,17.50
2018-04-11T16:44:01.293Z,17.10
2018-04-11T16:46:28.764Z,16.60
2018-04-11T16:48:56.226Z,16.80
2018-04-11T16:51:23.682Z,17.00
2018-04-11T16:53:51.144Z,17.10
2018-04-11T16:56:18.620Z,17.20
2018-04-11T16:58:46.078Z,17.40
2018-04-11T17:01:13.551Z,17.30
2018-04-11T17:03:41.010Z,17.50
2018-04-11T17:06:08.490Z,17.50
2018-04-11T17:08:35.958Z,17.50
2018-04-11T17:11:03.440Z,17.20
2018-04-11T17:13:31.652Z,17.30
2018-04-11T17:15:59.350Z,17.30
2018-04-11T17:18:26.814Z,17.40
2018-04-11T17:21:06.243Z,17.20
2018-04-11T17:23:45.600Z,17.20
2018-04-11T17:26:24.977Z,17.10
2018-04-11T17:29:04.375Z,17.10
2018-04-11T17:31:32.614Z,17.00
2018-04-11T17:34:00.098Z,16.90
2018-04-11T17:36:28.470Z,16.80
2018-04-11T17:38:55.937Z,17.00
2018-04-11T17:41:23.403Z,17.00
2018-04-11T17:43:50.879Z,16.80
2018-04-11T17:46:18.331Z,17.00
2018-04-11T17:48:45.786Z,17.20
2018-04-11T17:51:13.231Z,17.10
2018-04-11T17:53:40.676Z,16.80
2018-04-11T17:56:08.150Z,16.90
2018-04-11T17:58:35.630Z,17.10
2018-04-11T18:01:03.095Z,17.20
2018-04-11T18:03:30.588Z,16.90
2018-04-11T18:05:58.048Z,16.80
2018-04-11T18:08:25.537Z,16.70
2018-04-11T18:10:52.953Z,16.70
2018-04-11T18:13:20.435Z,16.70
2018-04-11T18:15:47.882Z,16.90
2018-04-11T18:18:15.359Z,16.90
2018-04-11T18:20:42.818Z,16.60
2018-04-11T18:23:10.272Z,16.50
2018-04-11T18:25:37.742Z,16.40
2018-04-11T18:28:05.176Z,16.40
2018-04-11T18:30:32.651Z,16.60
2018-04-11T18:33:00.102Z,16.40
2018-04-11T18:35:27.578Z,16.30
2018-04-11T18:37:55.033Z,16.50
2018-04-11T18:40:22.474Z,16.30
2018-04-11T18:42:49.945Z,16.20
2018-04-11T18:45:17.410Z,16.30
2018-04-11T18:47:44.861Z,16.10
2018-04-11T18:50:12.299Z,15.90
2018-04-11T18:52:40.573Z,15.90
2018-04-11T18:55:08.812Z,15.80
2018-04-11T18:57:36.276Z,15.80
2018-04-11T19:00:03.751Z,15.90
2018-04-11T19:02:31.205Z,15.80
2018-04-11T19:04:58.673Z,15.80
2018-04-11T19:07:26.274Z,16.10
2018-04-11T19:09:54.427Z,16.00
2018-04-11T19:12:21.891Z,16.00
2018-04-11T19:14:49.353Z,15.80
2018-04-11T19:17:16.823Z,15.80
2018-04-11T19:19:44.282Z,16.00
2018-04-11T19:22:11.748Z,15.90
2018-04-11T19:24:39.192Z,16.20
2018-04-11T19:27:06.651Z,16.30
2018-04-11T19:29:34.101Z,16.30
2018-04-11T19:32:01.561Z,16.20
2018-04-11T19:34:29.039Z,16.20
2018-04-11T19:36:56.536Z,16.30
2018-04-11T19:39:25.507Z,15.90
2018-04-11T19:41:52.991Z,15.90
2018-04-11T19:44:20.478Z,15.90
2018-04-11T19:46:48.711Z,15.70
2018-04-11T19:49:16.178Z,15.80
2018-04-11T19:51:43.632Z,15.70
2018-04-11T19:54:11.095Z,15.80
2018-04-11T19:56:38.641Z,16.00
2018-04-11T19:59:06.125Z,15.80
2018-04-11T20:01:33.571Z,16.10
2018-04-11T20:04:01.041Z,15.90
2018-04-11T20:06:29.274Z,16.10
2018-04-11T20:08:57.498Z,16.20
2018-04-11T20:11:24.951Z,16.20
2018-04-11T20:13:52.460Z,16.10
2018-04-11T20:16:19.891Z,16.00
2018-04-11T20:18:47.347Z,16.10
2018-04-11T20:21:14.809Z,15.80
2018-04-11T20:23:42.274Z,15.50
2018-04-11T20:26:09.759Z,15.50
2018-04-11T20:28:37.233Z,15.50
2018-04-11T20:31:04.709Z,15.50
2018-04-11T20:33:32.156Z,15.50
2018-04-11T20:35:59.645Z,15.40
2018-04-11T20:38:27.707Z,15.50
2018-04-11T20:40:55.161Z,15.60
2018-04-11T20:43:22.651Z,15.60
2018-04-11T20:45:52.879Z,15.30
2018-04-11T20:48:21.486Z,15.50
2018-04-11T20:50:48.946Z,15.50
2018-04-11T20:53:16.425Z,15.20
2018-04-11T20:55:43.886Z,15.00
2018-04-11T20:58:11.378Z,14.90
2018-04-11T21:00:38.820Z,15.10
2018-04-11T21:03:06.291Z,15.10
2018-04-11T21:05:33.753Z,15.30
2018-04-11T21:08:01.232Z,15.40
2018-04-11T21:10:28.713Z,15.40
2018-04-11T21:12:56.933Z,15.50
2018-04-11T21:15:24.415Z,15.50
2018-04-11T21:17:51.921Z,15.30
2018-04-11T21:20:19.369Z,15.20
2018-04-11T21:22:46.836Z,15.20
2018-04-11T21:25:14.348Z,15.20
2018-04-11T21:27:41.851Z,15.20
2018-04-11T21:30:09.328Z,15.10
2018-04-11T21:32:36.791Z,15.10
2018-04-11T21:35:04.250Z,15.00
2018-04-11T21:37:31.736Z,15.00
2018-04-11T21:39:59.188Z,14.70
2018-04-11T21:42:27.671Z,14.80
2018-04-11T21:44:55.147Z,14.80
2018-04-11T21:47:23.381Z,14.80
2018-04-11T21:49:50.812Z,14.80
2018-04-11T21:52:18.403Z,14.80
2018-04-11T21:54:45.853Z,14.80
2018-04-11T21:57:13.309Z,14.60
2018-04-11T21:59:40.774Z,14.50
2018-04-11T22:02:08.231Z,14.60
2018-04-11T22:04:35.700Z,14.80
2018-04-11T22:07:03.172Z,14.60
2018-04-11T22:09:30.642Z,14.70
2018-04-11T22:11:58.117Z,14.70
2018-04-11T22:14:25.588Z,14.70
2018-04-11T22:16:53.041Z,14.60
2018-04-11T22:19:20.505Z,14.50
2018-04-11T22:21:47.974Z,14.40
2018-04-11T22:24:15.426Z,14.30
2018-04-11T22:26:42.899Z,14.30
2018-04-11T22:29:10.352Z,14.40
2018-04-11T22:31:38.220Z,14.60
2018-04-11T22:34:05.680Z,14.60
2018-04-11T22:36:33.140Z,14.50
2018-04-11T22:39:00.613Z,14.50
2018-04-11T22:41:28.100Z,14.40
2018-04-11T22:43:55.556Z,14.60
2018-04-11T22:46:23.009Z,14.10
2018-04-11T22:48:50.479Z,14.30
2018-04-11T22:51:17.965Z,14.10
2018-04-11T22:53:45.411Z,14.10
2018-04-11T22:56:12.880Z,14.00
2018-04-11T22:58:40.342Z,14.00
2018-04-11T23:01:07.795Z,13.90
2018-04-11T23:03:35.253Z,13.90
2018-04-11T23:06:02.735Z,13.90
2018-04-11T23:08:30.184Z,13.90
2018-04-11T23:10:57.636Z,14.00
2018-04-11T23:13:25.112Z,14.10
2018-04-11T23:15:52.582Z,14.00
2018-04-11T23:18:20.053Z,14.20
2018-04-11T23:20:47.523Z,14.30
2018-04-11T23:23:15.739Z,14.10
2018-04-11T23:25:43.191Z,14.10
2018-04-11T23:28:10.665Z,14.30
2018-04-11T23:30:38.139Z,14.10
2018-04-11T23:33:05.597Z,14.00
2018-04-11T23:35:33.035Z,14.00
2018-04-11T23:38:00.497Z,14.00
2018-04-11T23:40:28.001Z,13.90
2018-04-11T23:42:55.464Z,14.00
2018-04-11T23:45:22.918Z,14.00
2018-04-11T23:47:50.392Z,13.90
2018-04-11T23:50:17.877Z,13.80
2018-04-11T23:52:45.325Z,13.70
2018-04-11T23:55:12.773Z,13.70
2018-04-11T23:57:40.246Z,13.70
